< Typhoon 198601 1986 Season Typhoon 198603 >
Typhoon 198602 (KEN)
General InformationTrack Information on Google MapsDetailed Wind InformationList of All Images || Disaster Info.ResourceGoogle EarthGE AnimationAtom FeedGeoJSON
Detalied Best Track (Time Zone = UTC)
Year Month Day Hour Lat. Long. Pressure (hPa) Wind (kt) Class Image Chart
1986 4 24 06 4.8 144.5 1004 0 2 Image Chart
1986 4 24 12 5.0 143.7 1004 0 2 Image Chart
1986 4 24 18 5.3 143.1 1004 0 2 Image Chart
1986 4 25 00 5.5 142.5 1004 0 2 Image Chart
1986 4 25 06 5.7 141.9 1002 0 2 Image Chart
1986 4 25 12 6.1 141.3 1002 0 2 Image Chart
1986 4 25 18 6.4 140.7 1002 0 2 Image Chart
1986 4 26 00 6.7 140.4 1002 0 2 Image Chart
1986 4 26 06 6.9 140.0 1002 0 2 Image Chart
1986 4 26 12 7.1 139.7 1000 0 2 Image Chart
1986 4 26 18 7.3 139.5 996 35 3 Image Chart
1986 4 27 00 7.6 139.4 992 40 3 Image Chart
1986 4 27 06 8.1 139.5 985 60 4 Image Chart
1986 4 27 12 8.6 139.5 985 60 4 Image Chart
1986 4 27 18 9.1 139.5 980 65 5 Image Chart
1986 4 28 00 9.6 139.3 980 65 5 Image Chart
1986 4 28 06 10.0 139.3 980 65 5 Image Chart
1986 4 28 12 10.2 139.1 980 65 5 Image Chart
1986 4 28 18 10.2 138.9 985 60 4 Image Chart
1986 4 29 00 10.2 138.7 990 45 3 Image Chart
1986 4 29 06 10.3 138.5 992 35 3 Image Chart
1986 4 29 12 10.4 138.2 996 50 4 Image Chart
1986 4 29 18 10.4 137.9 996 50 4 Image Chart
1986 4 30 00 10.3 137.6 998 45 3 Image Chart
1986 4 30 06 10.2 137.3 998 40 3 Image Chart
1986 4 30 12 10.0 136.8 998 45 3 Image Chart
1986 4 30 18 9.7 136.2 998 40 3 Image Chart
1986 5 1 00 9.4 135.6 1000 40 3 Image Chart
1986 5 1 06 9.4 135.4 1002 0 2 Image Chart
1986 5 1 12 9.5 135.3 1002 0 2 Image Chart
1986 5 1 18 9.7 135.3 1004 0 2 Image Chart
1986 5 2 00 10.0 135.2 1004 0 2 Image Chart
1986 5 2 06 10.2 135.1 1004 0 2 Image Chart
1986 5 2 12 10.4 134.9 1004 0 2 Image Chart
1986 5 2 18 10.7 134.6 1004 0 2 Image Chart
1986 5 3 00 11.0 134.2 1006 0 2 Image Chart
1986 5 3 06 11.5 133.5 1006 0 2 Image Chart
Japan Meteorological Agency Best Track Data | Correction Date : 1992-10-21
< Typhoon 198601 1986 Season Typhoon 198603 >

Help